VIR236 EGPH-KMIA
Flight info
| Callsign | VIR236 |
|---|---|
| Flight time | N/A |
| Altitude | 36000 |
| Route | GOSAM P600 FENIK DCT NORBO DCT MAC DCT MOLAK DCT RILED DCT TOBOR/M084F370 NATG ALLRY/N0493F380 N468A TUSKY DCT FOXBO DCT RIFLE DCT HEADI Q97 BYSEL/N0474F400 DCT ZJAAY Q97 KALDA/N0475F390 Q97 ZJAAY/N0475F400 Q97 DEBRL TARPN3 |
| Aircraft | A35K/H-SDE2E3GHIJ3J4J5LM1ORWXY/LB1D1 |
Departure
| Time | 2026-04-23 11:57 |
|---|---|
| Airport | Edinburgh Airport (EGPH) |
Arrival
| Time | N/A |
|---|---|
| Airport | Miami International Airport (KMIA) |
| Time | Latitude | Longitude | Altitude | Speed | Heading |
|---|---|---|---|---|---|
| 2026-04-23 11:35 | 55.95026 | -3.36041 | 122 ft | 0 kts | 248° |
| 2026-04-23 11:47 | 55.95032 | -3.36013 | 117 ft | 4 kts | 248° |
| 2026-04-23 11:47 | 55.95042 | -3.35969 | 117 ft | 4 kts | 248° |
| 2026-04-23 11:47 | 55.95052 | -3.35925 | 117 ft | 4 kts | 256° |
| 2026-04-23 11:48 | 55.95055 | -3.35883 | 117 ft | 4 kts | 279° |
| 2026-04-23 11:48 | 55.95050 | -3.35853 | 117 ft | 1 kts | 298° |
| 2026-04-23 11:48 | 55.95061 | -3.35887 | 117 ft | 1 kts | 298° |
| 2026-04-23 11:48 | 55.95061 | -3.35888 | 117 ft | 0 kts | 298° |
| 2026-04-23 11:50 | 55.95062 | -3.35889 | 117 ft | 1 kts | 298° |
| 2026-04-23 11:50 | 55.95074 | -3.35929 | 117 ft | 8 kts | 299° |
| 2026-04-23 11:51 | 55.95108 | -3.36077 | 121 ft | 16 kts | 288° |
| 2026-04-23 11:51 | 55.95131 | -3.36264 | 120 ft | 15 kts | 261° |
| 2026-04-23 11:51 | 55.95080 | -3.36442 | 119 ft | 18 kts | 239° |
| 2026-04-23 11:51 | 55.95010 | -3.36650 | 118 ft | 22 kts | 239° |
| 2026-04-23 11:52 | 55.94930 | -3.36886 | 118 ft | 24 kts | 237° |
| 2026-04-23 11:52 | 55.94843 | -3.37139 | 118 ft | 24 kts | 238° |
| 2026-04-23 11:52 | 55.94755 | -3.37401 | 120 ft | 25 kts | 239° |
| 2026-04-23 11:52 | 55.94665 | -3.37667 | 117 ft | 25 kts | 239° |
| 2026-04-23 11:53 | 55.94572 | -3.37939 | 118 ft | 26 kts | 239° |
| 2026-04-23 11:53 | 55.94477 | -3.38217 | 117 ft | 26 kts | 239° |
| 2026-04-23 11:53 | 55.94382 | -3.38500 | 117 ft | 27 kts | 238° |
| 2026-04-23 11:53 | 55.94296 | -3.38756 | 118 ft | 10 kts | 243° |
| 2026-04-23 11:54 | 55.94302 | -3.38853 | 117 ft | 8 kts | 294° |
| 2026-04-23 11:54 | 55.94316 | -3.38891 | 117 ft | 1 kts | 312° |
| 2026-04-23 11:54 | 55.94329 | -3.38909 | 119 ft | 4 kts | 321° |
| 2026-04-23 11:54 | 55.94381 | -3.38969 | 116 ft | 12 kts | 341° |
| 2026-04-23 11:55 | 55.94434 | -3.38917 | 116 ft | 5 kts | 57° |
| 2026-04-23 11:55 | 55.94435 | -3.38916 | 116 ft | 0 kts | 57° |
| 2026-04-23 11:56 | 55.94448 | -3.38878 | 116 ft | 20 kts | 58° |
| 2026-04-23 11:56 | 55.94677 | -3.38201 | 116 ft | 106 kts | 59° |
| 2026-04-23 11:57 | 55.95193 | -3.36683 | 221 ft | 171 kts | 58° |
| 2026-04-23 11:57 | 55.95807 | -3.34871 | 1272 ft | 166 kts | 59° |
| 2026-04-23 11:57 | 55.96518 | -3.33073 | 1814 ft | 189 kts | 48° |
| 2026-04-23 11:57 | 55.97612 | -3.31575 | 2125 ft | 211 kts | 34° |
| 2026-04-23 11:58 | 55.98909 | -3.30007 | 2315 ft | 237 kts | 36° |
| 2026-04-23 11:58 | 56.00414 | -3.28556 | 2673 ft | 254 kts | 16° |
| 2026-04-23 11:58 | 56.02175 | -3.28623 | 3251 ft | 260 kts | 339° |
| 2026-04-23 11:58 | 56.03592 | -3.30541 | 3910 ft | 259 kts | 302° |
| 2026-04-23 11:59 | 56.04082 | -3.33588 | 4510 ft | 262 kts | 266° |
| 2026-04-23 11:59 | 56.03513 | -3.36633 | 5265 ft | 260 kts | 234° |
| 2026-04-23 11:59 | 56.02601 | -3.39431 | 6043 ft | 263 kts | 247° |
| 2026-04-23 11:59 | 56.02073 | -3.42563 | 6799 ft | 264 kts | 253° |
| 2026-04-23 12:00 | 56.01631 | -3.45760 | 7498 ft | 265 kts | 254° |
| 2026-04-23 12:00 | 56.01181 | -3.48985 | 8053 ft | 271 kts | 254° |
| 2026-04-23 12:00 | 56.00697 | -3.52255 | 8637 ft | 275 kts | 253° |
| 2026-04-23 12:00 | 56.00203 | -3.55576 | 9334 ft | 276 kts | 253° |
| 2026-04-23 12:01 | 55.99726 | -3.58915 | 10036 ft | 279 kts | 254° |
| 2026-04-23 12:01 | 55.99251 | -3.62283 | 10684 ft | 282 kts | 254° |
| 2026-04-23 12:01 | 55.98745 | -3.65763 | 11028 ft | 297 kts | 253° |
| 2026-04-23 12:01 | 55.98208 | -3.69412 | 11294 ft | 312 kts | 253° |
| 2026-04-23 12:02 | 55.97642 | -3.73257 | 11578 ft | 326 kts | 253° |
| 2026-04-23 12:02 | 55.97057 | -3.77198 | 11857 ft | 340 kts | 253° |
| 2026-04-23 12:02 | 55.96440 | -3.81350 | 12168 ft | 351 kts | 253° |
| 2026-04-23 12:02 | 55.95801 | -3.85654 | 12617 ft | 358 kts | 253° |
| 2026-04-23 12:03 | 55.95160 | -3.89972 | 13126 ft | 362 kts | 253° |
| 2026-04-23 12:03 | 55.94510 | -3.94337 | 13633 ft | 366 kts | 253° |
| 2026-04-23 12:03 | 55.93724 | -3.98611 | 14138 ft | 368 kts | 246° |
| 2026-04-23 12:03 | 55.92485 | -4.02617 | 14614 ft | 370 kts | 233° |
| 2026-04-23 12:04 | 55.90744 | -4.06077 | 15060 ft | 372 kts | 220° |
| 2026-04-23 12:04 | 55.88662 | -4.08838 | 15548 ft | 375 kts | 213° |
| 2026-04-23 12:04 | 55.86469 | -4.11369 | 16024 ft | 378 kts | 212° |
| 2026-04-23 12:04 | 55.84275 | -4.13865 | 16496 ft | 381 kts | 212° |
| 2026-04-23 12:05 | 55.82035 | -4.16425 | 16989 ft | 383 kts | 212° |
| 2026-04-23 12:05 | 55.79762 | -4.19039 | 17460 ft | 387 kts | 213° |
| 2026-04-23 12:05 | 55.77528 | -4.21632 | 17927 ft | 390 kts | 213° |
| 2026-04-23 12:05 | 55.75283 | -4.24351 | 18408 ft | 393 kts | 214° |
| 2026-04-23 12:06 | 55.73036 | -4.27158 | 18853 ft | 396 kts | 215° |
| 2026-04-23 12:06 | 55.70787 | -4.29994 | 19252 ft | 398 kts | 215° |
| 2026-04-23 12:06 | 55.66235 | -4.35705 | 20077 ft | 402 kts | 215° |
| 2026-04-23 12:07 | 55.63943 | -4.38554 | 20465 ft | 405 kts | 214° |
| 2026-04-23 12:07 | 55.61631 | -4.41413 | 20879 ft | 407 kts | 214° |
| 2026-04-23 12:07 | 55.59298 | -4.44288 | 21296 ft | 409 kts | 214° |
| 2026-04-23 12:07 | 55.56958 | -4.47166 | 21716 ft | 411 kts | 214° |
| 2026-04-23 12:08 | 55.54602 | -4.50058 | 22138 ft | 413 kts | 214° |
| 2026-04-23 12:08 | 55.52235 | -4.52959 | 22538 ft | 415 kts | 214° |
| 2026-04-23 12:08 | 55.49856 | -4.55867 | 22961 ft | 417 kts | 214° |
| 2026-04-23 12:08 | 55.47462 | -4.58792 | 23369 ft | 420 kts | 214° |
| 2026-04-23 12:09 | 55.45052 | -4.61733 | 23773 ft | 422 kts | 214° |
| 2026-04-23 12:09 | 55.42632 | -4.64682 | 24147 ft | 425 kts | 214° |
| 2026-04-23 12:09 | 55.40196 | -4.67644 | 24473 ft | 427 kts | 214° |
| 2026-04-23 12:09 | 55.37813 | -4.70791 | 24815 ft | 430 kts | 219° |
| 2026-04-23 12:10 | 55.35668 | -4.74470 | 25160 ft | 432 kts | 228° |
| 2026-04-23 12:10 | 55.33873 | -4.78714 | 25503 ft | 435 kts | 238° |
| 2026-04-23 12:10 | 55.32517 | -4.83472 | 25859 ft | 438 kts | 248° |
| 2026-04-23 12:10 | 55.31667 | -4.88618 | 26222 ft | 441 kts | 258° |
| 2026-04-23 12:11 | 55.31345 | -4.93989 | 26585 ft | 444 kts | 266° |
| 2026-04-23 12:11 | 55.31290 | -4.99417 | 26948 ft | 446 kts | 269° |
| 2026-04-23 12:11 | 55.31333 | -5.04864 | 27311 ft | 448 kts | 270° |
| 2026-04-23 12:11 | 55.31412 | -5.10332 | 27681 ft | 450 kts | 270° |
| 2026-04-23 12:12 | 55.31489 | -5.15838 | 28048 ft | 452 kts | 270° |
| 2026-04-23 12:12 | 55.31550 | -5.21350 | 28426 ft | 453 kts | 270° |
| 2026-04-23 12:12 | 55.31592 | -5.26908 | 28787 ft | 455 kts | 269° |
| 2026-04-23 12:12 | 55.31619 | -5.32467 | 29131 ft | 457 kts | 269° |
| 2026-04-23 12:13 | 55.31636 | -5.38058 | 29507 ft | 459 kts | 269° |
| 2026-04-23 12:13 | 55.31646 | -5.43682 | 29867 ft | 461 kts | 269° |
| 2026-04-23 12:13 | 55.31653 | -5.49324 | 30223 ft | 463 kts | 269° |
| 2026-04-23 12:13 | 55.31657 | -5.55004 | 30571 ft | 465 kts | 269° |
| 2026-04-23 12:14 | 55.31659 | -5.60691 | 30877 ft | 467 kts | 269° |
| 2026-04-23 12:14 | 55.31658 | -5.66415 | 31198 ft | 469 kts | 269° |
| 2026-04-23 12:14 | 55.31658 | -5.72133 | 31504 ft | 470 kts | 269° |
| 2026-04-23 12:14 | 55.31655 | -5.77881 | 31798 ft | 471 kts | 269° |
| 2026-04-23 12:15 | 55.31648 | -5.83651 | 32091 ft | 473 kts | 269° |
| 2026-04-23 12:15 | 55.31638 | -5.89425 | 32361 ft | 474 kts | 269° |
| 2026-04-23 12:15 | 55.31626 | -5.95224 | 32629 ft | 476 kts | 268° |
| 2026-04-23 12:15 | 55.31609 | -6.01037 | 32955 ft | 475 kts | 268° |
| 2026-04-23 12:16 | 55.31591 | -6.06824 | 33368 ft | 473 kts | 269° |
| 2026-04-23 12:16 | 55.31570 | -6.12580 | 33762 ft | 471 kts | 268° |
| 2026-04-23 12:16 | 55.31547 | -6.18318 | 34155 ft | 470 kts | 268° |
| 2026-04-23 12:16 | 55.31520 | -6.24058 | 34482 ft | 469 kts | 268° |
| 2026-04-23 12:17 | 55.31491 | -6.29783 | 34748 ft | 469 kts | 268° |
| 2026-04-23 12:17 | 55.31459 | -6.35514 | 35001 ft | 470 kts | 268° |
| 2026-04-23 12:17 | 55.31424 | -6.41253 | 35267 ft | 470 kts | 268° |
| 2026-04-23 12:17 | 55.31388 | -6.46981 | 35524 ft | 470 kts | 268° |
| 2026-04-23 12:18 | 55.31349 | -6.52712 | 35781 ft | 469 kts | 268° |
| 2026-04-23 12:18 | 55.31307 | -6.58443 | 36011 ft | 470 kts | 268° |
| 2026-04-23 12:18 | 55.31262 | -6.64105 | 36244 ft | 470 kts | 268° |
| 2026-04-23 12:18 | 55.31215 | -6.69846 | 36437 ft | 471 kts | 268° |
| 2026-04-23 12:19 | 55.31110 | -6.81443 | 36462 ft | 477 kts | 268° |
| 2026-04-23 12:19 | 55.30994 | -6.93140 | 36457 ft | 476 kts | 267° |
| 2026-04-23 12:20 | 55.30868 | -7.04684 | 36453 ft | 476 kts | 267° |
| 2026-04-23 12:20 | 55.30731 | -7.16304 | 36439 ft | 476 kts | 267° |
| 2026-04-23 12:21 | 55.30607 | -7.26032 | 36450 ft | 476 kts | 267° |
| 2026-04-23 12:21 | 55.30450 | -7.37570 | 36436 ft | 476 kts | 267° |
| 2026-04-23 12:22 | 55.30283 | -7.49168 | 36444 ft | 476 kts | 266° |
| 2026-04-23 12:22 | 55.30103 | -7.60779 | 36438 ft | 476 kts | 266° |
| 2026-04-23 12:23 | 55.29912 | -7.72394 | 36426 ft | 476 kts | 266° |
| 2026-04-23 12:23 | 55.29710 | -7.84017 | 36430 ft | 476 kts | 266° |
| 2026-04-23 12:24 | 55.29498 | -7.95625 | 36424 ft | 476 kts | 266° |
| 2026-04-23 12:24 | 55.29274 | -8.07244 | 36409 ft | 476 kts | 266° |
| 2026-04-23 12:25 | 55.29038 | -8.18862 | 36408 ft | 476 kts | 265° |
| 2026-04-23 12:25 | 55.28792 | -8.30482 | 36411 ft | 477 kts | 265° |
| 2026-04-23 12:26 | 55.28535 | -8.42110 | 36411 ft | 477 kts | 265° |
| 2026-04-23 12:26 | 55.28267 | -8.53727 | 36411 ft | 477 kts | 265° |
| 2026-04-23 12:27 | 55.27987 | -8.65342 | 36408 ft | 477 kts | 265° |
| 2026-04-23 12:27 | 55.27696 | -8.76968 | 36411 ft | 477 kts | 265° |
| 2026-04-23 12:28 | 55.27395 | -8.88586 | 36412 ft | 477 kts | 264° |
| 2026-04-23 12:28 | 55.27082 | -9.00223 | 36408 ft | 477 kts | 264° |
| 2026-04-23 12:29 | 55.26758 | -9.11846 | 36404 ft | 478 kts | 264° |
| 2026-04-23 12:29 | 55.26425 | -9.23409 | 36400 ft | 478 kts | 264° |
| 2026-04-23 12:30 | 55.26079 | -9.35044 | 36399 ft | 478 kts | 264° |
| 2026-04-23 12:30 | 55.25720 | -9.46742 | 36395 ft | 478 kts | 264° |
| 2026-04-23 12:31 | 55.25351 | -9.58377 | 36394 ft | 478 kts | 264° |
| 2026-04-23 12:31 | 55.24974 | -9.69938 | 36391 ft | 478 kts | 263° |
| 2026-04-23 12:32 | 55.24583 | -9.81589 | 36388 ft | 479 kts | 263° |
| 2026-04-23 12:32 | 55.24197 | -9.93230 | 36382 ft | 480 kts | 265° |
| 2026-04-23 12:33 | 55.24869 | -10.04906 | 36382 ft | 487 kts | 281° |
| 2026-04-23 12:33 | 55.26695 | -10.16358 | 36381 ft | 489 kts | 283° |
| 2026-04-23 12:34 | 55.28720 | -10.27739 | 36376 ft | 490 kts | 284° |
| 2026-04-23 12:34 | 55.30740 | -10.39150 | 36377 ft | 490 kts | 283° |
| 2026-04-23 12:35 | 55.32718 | -10.50592 | 36371 ft | 490 kts | 283° |
| 2026-04-23 12:35 | 55.34672 | -10.62062 | 36372 ft | 490 kts | 283° |
| 2026-04-23 12:36 | 55.36612 | -10.73542 | 36370 ft | 490 kts | 283° |
| 2026-04-23 12:36 | 55.38541 | -10.85026 | 36361 ft | 490 kts | 283° |
| 2026-04-23 12:37 | 55.40462 | -10.96533 | 36358 ft | 490 kts | 282° |
| 2026-04-23 12:37 | 55.42374 | -11.08056 | 36362 ft | 490 kts | 282° |
| 2026-04-23 12:38 | 55.44276 | -11.19595 | 36355 ft | 491 kts | 282° |
| 2026-04-23 12:38 | 55.46167 | -11.31148 | 36356 ft | 491 kts | 282° |
| 2026-04-23 12:39 | 55.48045 | -11.42697 | 36353 ft | 491 kts | 282° |
| 2026-04-23 12:39 | 55.49914 | -11.54272 | 36350 ft | 491 kts | 282° |
| 2026-04-23 12:40 | 55.51773 | -11.65860 | 36352 ft | 491 kts | 282° |
| 2026-04-23 12:40 | 55.53608 | -11.77380 | 36346 ft | 491 kts | 282° |
| 2026-04-23 12:41 | 55.55444 | -11.88979 | 36346 ft | 491 kts | 281° |
| 2026-04-23 12:41 | 55.57271 | -12.00607 | 36340 ft | 491 kts | 281° |
| 2026-04-23 12:42 | 55.59084 | -12.12231 | 36336 ft | 491 kts | 281° |
| 2026-04-23 12:42 | 55.60888 | -12.23873 | 36335 ft | 491 kts | 281° |
| 2026-04-23 12:43 | 55.62684 | -12.35544 | 36333 ft | 491 kts | 281° |
| 2026-04-23 12:43 | 55.64469 | -12.47225 | 36332 ft | 492 kts | 281° |
| 2026-04-23 12:44 | 55.66242 | -12.58918 | 36328 ft | 492 kts | 281° |
| 2026-04-23 12:44 | 55.68005 | -12.70626 | 36326 ft | 492 kts | 281° |
| 2026-04-23 12:45 | 55.69756 | -12.82336 | 36322 ft | 492 kts | 281° |
| 2026-04-23 12:45 | 55.71500 | -12.94085 | 36320 ft | 492 kts | 280° |
| 2026-04-23 12:46 | 55.73231 | -13.05835 | 36320 ft | 493 kts | 280° |
| 2026-04-23 12:46 | 55.74954 | -13.17615 | 36316 ft | 493 kts | 280° |
| 2026-04-23 12:47 | 55.76665 | -13.29401 | 36315 ft | 493 kts | 280° |
| 2026-04-23 12:47 | 55.78367 | -13.41214 | 36310 ft | 493 kts | 280° |
| 2026-04-23 12:48 | 55.80058 | -13.53037 | 36306 ft | 494 kts | 279° |
| 2026-04-23 12:48 | 55.81737 | -13.64872 | 36304 ft | 494 kts | 279° |
| 2026-04-23 12:49 | 55.83407 | -13.76725 | 36303 ft | 494 kts | 279° |
| 2026-04-23 12:49 | 55.85057 | -13.88532 | 36301 ft | 495 kts | 279° |
| 2026-04-23 12:50 | 55.86707 | -14.00430 | 36304 ft | 495 kts | 279° |
| 2026-04-23 12:50 | 55.88344 | -14.12327 | 36297 ft | 495 kts | 279° |
| 2026-04-23 12:51 | 55.89974 | -14.24268 | 36294 ft | 495 kts | 279° |
| 2026-04-23 12:51 | 55.91590 | -14.36200 | 36294 ft | 496 kts | 279° |
| 2026-04-23 12:52 | 55.93195 | -14.48151 | 36290 ft | 496 kts | 279° |
| 2026-04-23 12:52 | 55.94792 | -14.60130 | 36285 ft | 496 kts | 279° |
| 2026-04-23 12:53 | 55.96375 | -14.72108 | 36285 ft | 496 kts | 278° |
| 2026-04-23 12:53 | 55.97948 | -14.84106 | 36284 ft | 496 kts | 278° |
| 2026-04-23 12:54 | 55.99518 | -14.96130 | 36286 ft | 498 kts | 279° |
| 2026-04-23 12:54 | 56.01774 | -15.07904 | 36277 ft | 503 kts | 287° |
| 2026-04-23 12:55 | 56.04336 | -15.19457 | 36284 ft | 504 kts | 288° |
| 2026-04-23 12:55 | 56.06960 | -15.31078 | 36270 ft | 504 kts | 288° |
| 2026-04-23 12:56 | 56.09565 | -15.42731 | 36272 ft | 504 kts | 287° |
| 2026-04-23 12:56 | 56.12143 | -15.54389 | 36271 ft | 503 kts | 287° |
| 2026-04-23 12:57 | 56.14704 | -15.66066 | 36269 ft | 504 kts | 287° |
| 2026-04-23 12:57 | 56.17256 | -15.77770 | 36270 ft | 504 kts | 287° |
| 2026-04-23 12:58 | 56.19800 | -15.89501 | 36270 ft | 504 kts | 287° |
| 2026-04-23 12:58 | 56.22334 | -16.01246 | 36263 ft | 504 kts | 287° |
| 2026-04-23 12:59 | 56.24853 | -16.12991 | 36264 ft | 504 kts | 287° |
| 2026-04-23 12:59 | 56.27365 | -16.24766 | 36263 ft | 504 kts | 287° |
| 2026-04-23 13:00 | 56.29864 | -16.36554 | 36261 ft | 504 kts | 287° |
| 2026-04-23 13:00 | 56.32354 | -16.48365 | 36259 ft | 504 kts | 287° |
| 2026-04-23 13:01 | 56.34830 | -16.60179 | 36255 ft | 504 kts | 287° |
| 2026-04-23 13:01 | 56.37295 | -16.72012 | 36253 ft | 504 kts | 286° |
| 2026-04-23 13:02 | 56.39752 | -16.83873 | 36250 ft | 505 kts | 286° |
| 2026-04-23 13:02 | 56.42198 | -16.95752 | 36249 ft | 505 kts | 286° |
| 2026-04-23 13:03 | 56.44631 | -17.07638 | 36247 ft | 504 kts | 286° |
| 2026-04-23 13:03 | 56.47054 | -17.19549 | 36243 ft | 504 kts | 286° |
| 2026-04-23 13:04 | 56.49463 | -17.31460 | 36247 ft | 504 kts | 286° |
| 2026-04-23 13:04 | 56.51863 | -17.43396 | 36247 ft | 504 kts | 286° |
| 2026-04-23 13:05 | 56.54245 | -17.55320 | 36242 ft | 503 kts | 286° |
| 2026-04-23 13:05 | 56.56600 | -17.67178 | 36243 ft | 503 kts | 286° |
| 2026-04-23 13:06 | 56.60133 | -17.85097 | 36239 ft | 503 kts | 285° |
| 2026-04-23 13:07 | 56.62473 | -17.97058 | 36239 ft | 503 kts | 285° |
| 2026-04-23 13:07 | 56.64799 | -18.09023 | 36235 ft | 502 kts | 285° |
| 2026-04-23 13:08 | 56.67116 | -18.21014 | 36238 ft | 502 kts | 285° |
| 2026-04-23 13:08 | 56.69421 | -18.33013 | 36233 ft | 502 kts | 285° |
| 2026-04-23 13:09 | 56.71713 | -18.45026 | 36232 ft | 502 kts | 285° |
| 2026-04-23 13:09 | 56.73992 | -18.57041 | 36234 ft | 502 kts | 285° |
| 2026-04-23 13:10 | 56.76261 | -18.69085 | 36233 ft | 502 kts | 285° |
| 2026-04-23 13:10 | 56.78150 | -18.79168 | 36236 ft | 502 kts | 285° |
| 2026-04-23 13:11 | 56.80381 | -18.91143 | 36224 ft | 502 kts | 285° |
| 2026-04-23 13:11 | 56.82614 | -19.03206 | 36224 ft | 502 kts | 285° |
| 2026-04-23 13:12 | 56.84833 | -19.15277 | 36219 ft | 502 kts | 285° |
| 2026-04-23 13:12 | 56.87043 | -19.27369 | 36216 ft | 502 kts | 284° |
| 2026-04-23 13:13 | 56.89240 | -19.39471 | 36222 ft | 501 kts | 284° |
| 2026-04-23 13:13 | 56.91422 | -19.51573 | 36216 ft | 501 kts | 284° |
| 2026-04-23 13:14 | 56.93595 | -19.63697 | 36217 ft | 501 kts | 284° |
| 2026-04-23 13:14 | 56.95755 | -19.75830 | 36217 ft | 501 kts | 284° |
| 2026-04-23 13:15 | 56.97902 | -19.87972 | 36219 ft | 501 kts | 284° |
| 2026-04-23 13:15 | 57.00039 | -20.00134 | 36218 ft | 501 kts | 284° |
| 2026-04-23 13:16 | 57.01956 | -20.12372 | 36215 ft | 499 kts | 281° |